Sapelo Island, GA (31327)

3:26 PM EST on February 14, 2016 (GMT -0500)
Fairhope - Sapelo River | | Change Station
CLOSE
Current Station
Personal Weather Station
Location: Townsend, GA
Elevation: 5 ft
Nearby Weather Stations
Active Advisory: Flood Warning

Elev 5 ft 31.54 °N, 81.39 °W | Updated 3 minutes ago

Overcast
Overcast
43.9 °F
Feels Like 39 °F
N
8.1
Wind Variable Wind from ENE
Gusts 11.0 mph

Today
High -- | Low -- °F
--% Chance of Precip.
Yesterday
High -- | Low -- °F
Precip. -- in
Pressure 30.33 in
Visibility 10.0 miles
Clouds Overcast 1500 ft
Windchill 39 °F
Dew Point 38 °F
Humidity 80%
Rainfall 0.00 in
Snow Depth Not available.
7:07 AM 6:10 PM
Waxing Crescent, 45% visible
METAR KBQK 142015Z AUTO 04011G20KT 10SM OVC015 08/05 A3033 RMK AO2
Pressure 30.33 in
Visibility 10.0 miles
Clouds Overcast 1500 ft
Windchill 39 °F
Dew Point 38 °F
Humidity 80%
Rainfall 0.00 in
Snow Depth Not available.
7:07 AM 6:10 PM
Waxing Crescent, 45% visible
METAR KBQK 142015Z AUTO 04011G20KT 10SM OVC015 08/05 A3033 RMK AO2

10-Day Weather Forecast

Almanac

Astronomy

Feb. 14, 2016 Rise Set
Actual Time
Civil Twilight
Nautical Twilight
Astronomical Twilight
Moon
Length of Visible Light
Length of Day
Tomorrow will be .
, % of the Moon is Illuminated

Today's Extremes

State Highs State Lows

Community

WunderPhotos

Upload Photos

1,892,885 photos uploaded!

WunderBlog® & News

Nearby

Air Quality

  Air Quality AQ Index Pollutant
Not available.

Snow Depth

Station Depth Elevation

Earthquake Activity

City Distance Mag. Time & Date
Minimum magnitude displayed is 2.5.

Coastal Water Temperatures

Place Temperature

Stations

Nearby Weather Stations

Station Location Temp. Windchill Dew Point Humidity Wind Precip. Elev Updated Type
                   

Watches & Warnings

Flood Warning
Issued: 8:38 AM EST Feb. 14, 2016 – National Weather Service

The Flood Warning continues for
the Altamaha river at Everett city.
* Until further notice... or until the warning is cancelled.
* At 8:15 am Sunday the stage was 13.2 feet.
* Moderate flooding is occurring and moderate flooding is forecast.
* Flood stage is 12.0 feet.
* Forecast... the river will continue to fall to a stage of 13.0 feet
by tomorrow morning.
* Impact... at 13.0 feet... water begins to encroach upon Altamaha
regional park in Glynn County. This inlcudes Altamaha Park Road,
Betty Lott Lane and Bee Tree Island Road. In McIntosh County,
Barrington Park at the end of Harper Lake Road begins to flood.
Blue reach Road also begins to flood near the Long County line.




               Fld observed 7am EST / 8am EDT forecast
location stg stg day time Mon Tue Wed Thu Fri

Altamaha
Everett cit 12 13.2 sun 08 am 13.0 12.9 12.8 12.6 12.3




Lat... Lon 3152 8172 3139 8162 3130 8144 3138 8142 3143 8155 3155 8162